createdAt,value
2019-02-23T00:01:16.382Z,74.37
2019-02-23T00:03:45.715Z,74.97
2019-02-23T00:06:14.992Z,65.53
2019-02-23T00:08:44.257Z,63.73
2019-02-23T00:11:13.608Z,55.70
2019-02-23T00:13:42.938Z,46.10
2019-02-23T00:16:12.313Z,51.30
2019-02-23T00:18:41.684Z,48.43
2019-02-23T00:21:10.964Z,40.97
2019-02-23T00:23:40.248Z,42.90
2019-02-23T00:26:09.994Z,39.07
2019-02-23T00:28:39.326Z,43.83
2019-02-23T00:31:08.616Z,45.23
2019-02-23T00:33:37.883Z,40.27
2019-02-23T00:36:07.219Z,45.87
2019-02-23T00:38:36.491Z,38.67
2019-02-23T00:41:05.836Z,40.70
2019-02-23T00:43:35.191Z,48.57
2019-02-23T00:46:04.594Z,43.80
2019-02-23T00:48:33.898Z,40.97
2019-02-23T00:51:03.171Z,50.90
2019-02-23T00:53:32.425Z,38.87
2019-02-23T00:56:01.743Z,39.20
2019-02-23T00:58:31.775Z,40.43
2019-02-23T01:01:01.117Z,37.90
2019-02-23T01:03:30.473Z,48.53
2019-02-23T01:05:59.725Z,42.60
2019-02-23T01:08:29.309Z,45.27
2019-02-23T01:10:58.626Z,53.10
2019-02-23T01:13:28.661Z,56.23
2019-02-23T01:15:58.580Z,66.43
2019-02-23T01:18:27.976Z,81.17
2019-02-23T01:20:57.270Z,72.37
2019-02-23T01:23:26.637Z,69.47
2019-02-23T01:25:55.917Z,76.87
2019-02-23T01:28:25.205Z,59.43
2019-02-23T01:30:55.465Z,53.57
2019-02-23T01:33:24.721Z,50.63
2019-02-23T01:35:54.017Z,49.53
2019-02-23T01:38:23.317Z,46.23
2019-02-23T01:40:52.577Z,44.10
2019-02-23T01:43:21.869Z,33.67
2019-02-23T01:45:51.269Z,30.90
2019-02-23T01:48:20.528Z,30.10
2019-02-23T01:50:49.797Z,30.00
2019-02-23T01:53:19.149Z,31.00
2019-02-23T01:55:48.471Z,35.30
2019-02-23T01:58:17.789Z,34.30
2019-02-23T02:00:47.143Z,40.97
2019-02-23T02:03:16.440Z,40.17
2019-02-23T02:05:45.691Z,40.83
2019-02-23T02:08:14.990Z,41.87
2019-02-23T02:10:44.233Z,31.83
2019-02-23T02:13:13.489Z,43.07
2019-02-23T02:15:42.734Z,33.87
2019-02-23T02:18:11.995Z,29.03
2019-02-23T02:20:41.262Z,36.57
2019-02-23T02:23:10.484Z,47.13
2019-02-23T02:25:39.754Z,30.37
2019-02-23T02:28:08.993Z,32.83
2019-02-23T02:30:38.252Z,37.23
2019-02-23T02:33:07.528Z,40.13
2019-02-23T02:35:36.820Z,32.07
2019-02-23T02:38:06.119Z,37.90
2019-02-23T02:40:35.426Z,36.63
2019-02-23T02:43:04.763Z,30.77
2019-02-23T02:45:34.076Z,34.30
2019-02-23T02:48:03.482Z,39.03
2019-02-23T02:50:32.748Z,43.13
2019-02-23T02:53:02.022Z,45.43
2019-02-23T02:55:31.378Z,51.80
2019-02-23T02:58:00.634Z,64.80
2019-02-23T03:00:29.978Z,60.37
2019-02-23T03:02:59.226Z,68.80
2019-02-23T03:05:28.501Z,64.00
2019-02-23T03:07:57.754Z,61.97
2019-02-23T03:10:27.008Z,56.57
2019-02-23T03:12:56.326Z,62.13
2019-02-23T03:15:25.650Z,57.23
2019-02-23T03:17:54.844Z,51.60
2019-02-23T03:20:35.974Z,58.93
2019-02-23T03:22:55.081Z,56.07
2019-02-23T03:25:24.446Z,59.67
2019-02-23T03:27:53.686Z,52.27
2019-02-23T03:30:23.338Z,48.70
2019-02-23T03:32:52.654Z,43.87
2019-02-23T03:35:21.997Z,48.73
2019-02-23T03:37:51.357Z,41.07
2019-02-23T03:40:20.685Z,45.90
2019-02-23T03:42:49.973Z,26.23
2019-02-23T03:45:19.274Z,43.13
2019-02-23T03:47:48.561Z,31.33
2019-02-23T03:50:17.748Z,30.60
2019-02-23T03:52:47.054Z,37.27
2019-02-23T03:55:16.326Z,39.67
2019-02-23T03:57:45.590Z,35.87
2019-02-23T04:00:14.879Z,32.37
2019-02-23T04:02:44.127Z,37.97
2019-02-23T04:05:13.451Z,34.37
2019-02-23T04:07:42.829Z,37.37
2019-02-23T04:10:12.073Z,42.93
2019-02-23T04:12:41.321Z,38.90
2019-02-23T04:15:10.706Z,46.40
2019-02-23T04:17:40.033Z,37.97
2019-02-23T04:20:09.724Z,36.90
2019-02-23T04:22:39.077Z,35.97
2019-02-23T04:25:08.594Z,40.13
2019-02-23T04:27:38.016Z,42.73
2019-02-23T04:30:07.684Z,44.23
2019-02-23T04:32:37.016Z,34.17
2019-02-23T04:35:06.296Z,43.27
2019-02-23T04:37:35.972Z,43.27
2019-02-23T04:40:05.591Z,41.67
2019-02-23T04:42:34.900Z,46.33
2019-02-23T04:45:04.379Z,49.40
2019-02-23T04:47:33.768Z,66.33
2019-02-23T04:50:03.130Z,242.87
2019-02-23T04:52:32.475Z,101.87
2019-02-23T04:55:01.780Z,59.30
2019-02-23T04:57:31.071Z,66.23
2019-02-23T05:00:00.384Z,89.80
2019-02-23T05:02:29.731Z,62.80
2019-02-23T05:04:59.103Z,53.87
2019-02-23T05:07:28.507Z,60.90
2019-02-23T05:09:57.789Z,51.23
2019-02-23T05:12:27.121Z,49.27
2019-02-23T05:14:56.376Z,48.17
2019-02-23T05:17:25.675Z,43.27
2019-02-23T05:19:55.016Z,57.23
2019-02-23T05:22:24.314Z,50.97
2019-02-23T05:24:53.659Z,47.67
2019-02-23T05:27:23.006Z,40.83
2019-02-23T05:29:52.295Z,49.27
2019-02-23T05:32:21.667Z,51.40
2019-02-23T05:34:50.960Z,47.13
2019-02-23T05:37:20.252Z,48.37
2019-02-23T05:39:49.628Z,47.37
2019-02-23T05:42:19.116Z,40.63
2019-02-23T05:44:48.390Z,45.40
2019-02-23T05:47:17.690Z,63.40
2019-02-23T05:49:46.972Z,66.20
2019-02-23T05:52:16.378Z,66.63
2019-02-23T05:54:45.707Z,61.93
2019-02-23T05:57:14.967Z,77.03
2019-02-23T05:59:44.490Z,72.13
2019-02-23T06:02:13.778Z,72.10
2019-02-23T06:04:42.979Z,56.27
2019-02-23T06:07:12.290Z,62.33
2019-02-23T06:09:41.555Z,49.10
2019-02-23T06:12:10.943Z,53.30
2019-02-23T06:14:40.246Z,64.80
2019-02-23T06:17:09.731Z,80.97
2019-02-23T06:19:38.998Z,69.97
2019-02-23T06:22:08.366Z,60.67
2019-02-23T06:24:37.695Z,62.73
2019-02-23T06:27:06.985Z,81.63
2019-02-23T06:29:36.356Z,101.37
2019-02-23T06:32:06.558Z,98.57
2019-02-23T06:34:35.899Z,165.80
2019-02-23T06:37:05.165Z,143.77
2019-02-23T06:39:34.478Z,137.67
2019-02-23T06:42:03.725Z,153.47
2019-02-23T06:44:33.025Z,189.93
2019-02-23T06:47:02.367Z,305.87
2019-02-23T06:49:31.797Z,244.07
2019-02-23T06:52:04.322Z,131.83
2019-02-23T06:54:32.374Z,136.40
2019-02-23T06:57:01.750Z,98.17
2019-02-23T06:59:31.242Z,164.17
2019-02-23T07:02:00.613Z,201.17
2019-02-23T07:04:29.976Z,171.17
2019-02-23T07:06:59.471Z,282.40
2019-02-23T07:09:28.934Z,521.87
2019-02-23T07:11:58.438Z,508.97
2019-02-23T07:14:27.706Z,344.53
2019-02-23T07:16:57.421Z,136.57
2019-02-23T07:19:27.329Z,129.60
2019-02-23T07:21:56.594Z,149.50
2019-02-23T07:24:25.901Z,151.40
2019-02-23T07:26:55.249Z,253.73
2019-02-23T07:29:24.649Z,256.33
2019-02-23T07:31:53.966Z,180.53
2019-02-23T07:34:23.321Z,177.60
2019-02-23T07:36:52.657Z,230.23
2019-02-23T07:39:21.937Z,280.03
2019-02-23T07:41:51.272Z,241.07
2019-02-23T07:44:20.585Z,143.23
2019-02-23T07:46:49.972Z,140.53
2019-02-23T07:49:19.245Z,159.87
2019-02-23T07:51:48.604Z,212.40
2019-02-23T07:54:17.917Z,174.50
2019-02-23T07:56:47.236Z,178.33
2019-02-23T07:59:16.585Z,205.70
2019-02-23T08:01:45.908Z,172.47
2019-02-23T08:04:15.232Z,201.47
2019-02-23T08:06:44.547Z,179.90
2019-02-23T08:09:13.808Z,169.87
2019-02-23T08:11:43.428Z,239.40
2019-02-23T08:14:12.764Z,144.47
2019-02-23T08:16:42.099Z,182.73
2019-02-23T08:19:11.362Z,101.47
2019-02-23T08:21:40.680Z,100.10
2019-02-23T08:24:09.964Z,112.30
2019-02-23T08:26:39.274Z,73.03
2019-02-23T08:29:08.599Z,70.20
2019-02-23T08:31:37.864Z,59.93
2019-02-23T08:34:07.228Z,49.17
2019-02-23T08:36:36.615Z,52.87
2019-02-23T08:39:06.392Z,53.73
2019-02-23T08:41:35.787Z,35.60
2019-02-23T08:44:05.140Z,36.37
2019-02-23T08:46:34.444Z,43.70
2019-02-23T08:49:03.760Z,34.33
2019-02-23T08:51:33.063Z,33.80
2019-02-23T08:54:02.416Z,31.60
2019-02-23T08:56:31.787Z,33.17
2019-02-23T08:59:01.999Z,28.20
2019-02-23T09:01:31.267Z,27.17
2019-02-23T09:04:00.563Z,56.03
2019-02-23T09:06:29.879Z,34.37
2019-02-23T09:08:59.159Z,37.57
2019-02-23T09:11:28.719Z,28.70
2019-02-23T09:13:58.043Z,30.37
2019-02-23T09:16:27.354Z,61.53
2019-02-23T09:18:56.647Z,34.73
2019-02-23T09:21:25.891Z,22.63
2019-02-23T09:23:55.263Z,65.90
2019-02-23T09:26:24.524Z,93.00
2019-02-23T09:28:53.927Z,50.13
2019-02-23T09:31:23.243Z,103.87
2019-02-23T09:33:52.577Z,44.20
2019-02-23T09:36:21.911Z,25.77
2019-02-23T09:38:51.192Z,124.47
2019-02-23T09:41:20.535Z,21.60
2019-02-23T09:43:49.834Z,30.40
2019-02-23T09:46:19.104Z,25.70
2019-02-23T09:48:48.510Z,34.53
2019-02-23T09:51:17.854Z,34.50
2019-02-23T09:53:47.430Z,26.33
2019-02-23T09:56:16.661Z,40.93
2019-02-23T09:58:46.037Z,21.77
2019-02-23T10:01:17.729Z,27.30
2019-02-23T10:03:47.057Z,21.40
2019-02-23T10:06:16.714Z,244.73
2019-02-23T10:08:46.046Z,111.73
2019-02-23T10:11:15.370Z,32.63
2019-02-23T10:13:44.551Z,33.23
2019-02-23T10:16:13.826Z,35.50
2019-02-23T10:18:43.211Z,28.03
2019-02-23T10:21:12.462Z,16.80
2019-02-23T10:23:41.726Z,13.50
2019-02-23T10:26:11.045Z,16.37
2019-02-23T10:28:40.374Z,15.97
2019-02-23T10:31:09.658Z,26.13
2019-02-23T10:33:47.315Z,17.07
2019-02-23T10:36:09.879Z,20.77
2019-02-23T10:38:39.159Z,18.57
2019-02-23T10:41:08.402Z,22.20
2019-02-23T10:43:37.719Z,15.10
2019-02-23T10:46:07.010Z,14.40
2019-02-23T10:48:38.147Z,18.30
2019-02-23T10:51:07.482Z,20.93
2019-02-23T10:53:36.747Z,11.43
2019-02-23T10:56:06.056Z,13.47
2019-02-23T10:58:35.458Z,13.83
2019-02-23T11:01:06.957Z,14.30
2019-02-23T11:03:35.765Z,14.27
2019-02-23T11:06:05.865Z,28.37
2019-02-23T11:08:36.389Z,19.07
2019-02-23T11:11:06.357Z,21.80
2019-02-23T11:13:35.986Z,13.53
2019-02-23T11:16:05.657Z,14.10
2019-02-23T11:18:35.237Z,18.60
2019-02-23T11:21:04.541Z,20.23
2019-02-23T11:23:43.491Z,16.50
2019-02-23T11:26:04.826Z,13.20
2019-02-23T11:28:34.209Z,12.33
2019-02-23T11:31:03.489Z,21.83
2019-02-23T11:33:32.773Z,23.77
2019-02-23T11:36:02.089Z,20.63
2019-02-23T11:38:31.381Z,24.57
2019-02-23T11:41:00.646Z,18.63
2019-02-23T11:43:29.950Z,17.23
2019-02-23T11:45:59.197Z,11.53
2019-02-23T11:48:28.472Z,14.67
2019-02-23T11:50:57.888Z,15.07
2019-02-23T11:53:27.224Z,16.73
2019-02-23T11:55:56.577Z,16.07
2019-02-23T11:58:25.869Z,15.90
2019-02-23T12:00:55.153Z,15.23
2019-02-23T12:03:24.408Z,27.37
2019-02-23T12:05:53.860Z,18.43
2019-02-23T12:08:23.120Z,12.77
2019-02-23T12:10:52.408Z,12.57
2019-02-23T12:13:21.777Z,17.93
2019-02-23T12:15:51.082Z,26.13
2019-02-23T12:18:20.328Z,18.23
2019-02-23T12:20:49.652Z,25.73
2019-02-23T12:23:18.936Z,16.43
2019-02-23T12:25:48.236Z,31.30
2019-02-23T12:28:17.553Z,28.43
2019-02-23T12:30:46.840Z,28.67
2019-02-23T12:33:16.148Z,24.23
2019-02-23T12:35:45.536Z,46.20
2019-02-23T12:38:14.851Z,21.83
2019-02-23T12:40:44.128Z,18.27
2019-02-23T12:43:13.467Z,16.70
2019-02-23T12:45:43.496Z,31.50
2019-02-23T12:48:12.824Z,18.77
2019-02-23T12:50:42.131Z,29.80
2019-02-23T12:53:11.440Z,108.30
2019-02-23T12:55:40.801Z,20.43
2019-02-23T12:58:10.134Z,18.30
2019-02-23T13:00:39.391Z,16.70
2019-02-23T13:03:08.755Z,15.00
2019-02-23T13:05:38.023Z,19.63
2019-02-23T13:08:07.328Z,15.10
2019-02-23T13:10:36.579Z,21.03
2019-02-23T13:13:39.335Z,26.73
2019-02-23T13:16:58.842Z,25.13
2019-02-23T13:20:05.488Z,30.13
2019-02-23T13:22:52.727Z,17.87
2019-02-23T13:25:53.635Z,18.57
2019-02-23T13:28:39.134Z,15.50
2019-02-23T13:31:31.841Z,17.30
2019-02-23T13:34:49.162Z,11.30
2019-02-23T13:37:47.052Z,22.43
2019-02-23T13:40:57.175Z,14.80
2019-02-23T13:43:46.742Z,18.67
2019-02-23T13:46:46.683Z,13.03
2019-02-23T13:50:09.304Z,22.53
2019-02-23T13:53:17.031Z,13.23
2019-02-23T13:56:16.859Z,11.97
2019-02-23T13:59:01.375Z,18.93
2019-02-23T14:02:23.042Z,13.43
2019-02-23T14:05:01.864Z,31.70
2019-02-23T14:08:12.982Z,23.30
2019-02-23T14:11:08.142Z,21.37
2019-02-23T14:14:09.282Z,15.53
2019-02-23T14:17:02.293Z,16.60
2019-02-23T14:20:21.882Z,27.87
2019-02-23T14:23:38.703Z,14.87
2019-02-23T14:26:38.902Z,18.77
2019-02-23T14:29:23.585Z,37.13
2019-02-23T14:32:19.310Z,32.80
2019-02-23T14:35:20.682Z,14.27
2019-02-23T14:38:55.288Z,15.33
2019-02-23T14:41:47.393Z,18.53
2019-02-23T14:44:57.939Z,13.67
2019-02-23T14:47:49.109Z,16.13
2019-02-23T14:50:50.794Z,15.83
2019-02-23T14:53:38.069Z,21.53
2019-02-23T14:56:48.577Z,20.63
2019-02-23T14:59:39.181Z,18.27
2019-02-23T15:02:39.645Z,12.23
2019-02-23T15:05:31.661Z,18.70
2019-02-23T15:08:38.437Z,14.27
2019-02-23T15:11:34.879Z,19.20
2019-02-23T15:14:26.929Z,13.53
2019-02-23T15:17:46.497Z,16.63
2019-02-23T15:20:45.798Z,14.77
2019-02-23T15:23:39.448Z,13.27
2019-02-23T15:26:45.812Z,13.80
2019-02-23T15:29:51.648Z,12.10
2019-02-23T15:32:43.540Z,24.03
2019-02-23T15:36:06.365Z,20.13
2019-02-23T15:39:04.917Z,22.37
2019-02-23T15:42:37.669Z,45.83
2019-02-23T15:45:53.787Z,25.57
2019-02-23T15:48:48.029Z,18.13
2019-02-23T15:51:17.470Z,24.57
2019-02-23T15:53:46.744Z,23.97
2019-02-23T15:56:16.128Z,28.63
2019-02-23T15:58:46.044Z,81.27
2019-02-23T16:01:15.396Z,63.10
2019-02-23T16:03:44.725Z,42.93
2019-02-23T16:06:14.021Z,51.13
2019-02-23T16:08:43.348Z,53.10
2019-02-23T16:11:12.656Z,79.63
2019-02-23T16:13:41.944Z,137.57
2019-02-23T16:16:11.259Z,63.43
2019-02-23T16:18:40.544Z,79.90
2019-02-23T16:21:09.868Z,51.93
2019-02-23T16:23:39.236Z,38.27
2019-02-23T16:26:08.612Z,69.67
2019-02-23T16:28:37.892Z,45.57
2019-02-23T16:31:07.297Z,79.40
2019-02-23T16:33:36.751Z,68.97
2019-02-23T16:36:06.091Z,135.20
2019-02-23T16:38:35.387Z,91.77
2019-02-23T16:41:04.696Z,80.83
2019-02-23T16:43:34.456Z,74.23
2019-02-23T16:46:03.751Z,79.37
2019-02-23T16:48:33.027Z,106.43
2019-02-23T16:51:02.503Z,300.57
2019-02-23T16:53:31.768Z,120.20
2019-02-23T16:56:01.350Z,111.93
2019-02-23T16:58:30.735Z,143.67
2019-02-23T17:00:59.999Z,96.03
2019-02-23T17:03:29.267Z,93.97
2019-02-23T17:05:58.671Z,109.10
2019-02-23T17:08:28.059Z,178.83
2019-02-23T17:10:57.311Z,80.87
2019-02-23T17:13:26.592Z,136.43
2019-02-23T17:15:55.915Z,166.03
2019-02-23T17:18:25.327Z,116.20
2019-02-23T17:20:54.699Z,186.10
2019-02-23T17:23:24.001Z,175.20
2019-02-23T17:26:03.696Z,157.70
2019-02-23T17:28:24.249Z,148.17
2019-02-23T17:30:53.506Z,209.17
2019-02-23T17:33:22.792Z,103.97
2019-02-23T17:35:52.042Z,98.13
2019-02-23T17:38:21.357Z,416.73
2019-02-23T17:40:50.691Z,381.87
2019-02-23T17:43:19.951Z,384.53
2019-02-23T17:45:49.345Z,268.93
2019-02-23T17:48:18.578Z,232.40
2019-02-23T17:50:47.898Z,145.80
2019-02-23T17:53:17.279Z,148.27
2019-02-23T17:55:46.647Z,150.73
2019-02-23T17:58:15.958Z,159.43
2019-02-23T18:00:45.438Z,145.20
2019-02-23T18:03:14.766Z,150.07
2019-02-23T18:05:44.034Z,137.20
2019-02-23T18:08:13.430Z,132.40
2019-02-23T18:10:42.705Z,106.43
2019-02-23T18:13:12.108Z,151.07
2019-02-23T18:15:41.369Z,176.67
2019-02-23T18:18:10.653Z,104.77
2019-02-23T18:20:39.925Z,100.87
2019-02-23T18:23:09.154Z,100.43
2019-02-23T18:25:38.441Z,101.60
2019-02-23T18:28:07.767Z,103.67
2019-02-23T18:30:37.093Z,171.23
2019-02-23T18:33:06.469Z,165.83
2019-02-23T18:35:35.794Z,289.20
2019-02-23T18:38:05.284Z,523.90
2019-02-23T18:40:34.553Z,252.50
2019-02-23T18:43:03.862Z,154.27
2019-02-23T18:45:33.257Z,186.87
2019-02-23T18:48:02.552Z,177.60
2019-02-23T18:50:31.860Z,190.03
2019-02-23T18:53:01.125Z,224.27
2019-02-23T18:55:30.523Z,258.03
2019-02-23T18:57:59.825Z,162.13
2019-02-23T19:00:29.228Z,131.13
2019-02-23T19:02:58.521Z,200.07
2019-02-23T19:05:27.840Z,239.00
2019-02-23T19:07:57.149Z,201.20
2019-02-23T19:10:26.535Z,101.60
2019-02-23T19:12:55.861Z,104.93
2019-02-23T19:15:25.269Z,86.80
2019-02-23T19:17:54.633Z,69.30
2019-02-23T19:20:23.885Z,108.00
2019-02-23T19:22:53.209Z,70.27
2019-02-23T19:25:22.513Z,63.00
2019-02-23T19:27:53.468Z,76.10
2019-02-23T19:30:22.772Z,87.97
2019-02-23T19:32:52.012Z,83.40
2019-02-23T19:35:21.365Z,95.20
2019-02-23T19:37:50.610Z,75.87
2019-02-23T19:40:19.970Z,79.83
2019-02-23T19:42:49.260Z,71.23
2019-02-23T19:45:18.558Z,77.00
2019-02-23T19:47:47.932Z,74.83
2019-02-23T19:50:20.456Z,85.57
2019-02-23T19:52:49.776Z,51.27
2019-02-23T19:55:19.120Z,56.87
2019-02-23T19:57:48.428Z,45.70
2019-02-23T20:00:17.800Z,54.27
2019-02-23T20:02:48.264Z,48.47
2019-02-23T20:05:18.251Z,44.97
2019-02-23T20:07:47.547Z,52.93
2019-02-23T20:10:16.872Z,50.97
2019-02-23T20:12:46.187Z,55.80
2019-02-23T20:15:15.571Z,49.40
2019-02-23T20:17:45.155Z,42.77
2019-02-23T20:20:14.415Z,30.87
2019-02-23T20:22:43.674Z,37.17
2019-02-23T20:25:12.967Z,36.17
2019-02-23T20:27:46.092Z,55.00
2019-02-23T20:30:15.459Z,54.60
2019-02-23T20:32:44.726Z,35.70
2019-02-23T20:35:16.907Z,37.47
2019-02-23T20:37:46.204Z,39.87
2019-02-23T20:40:15.656Z,41.83
2019-02-23T20:42:45.087Z,61.90
2019-02-23T20:45:14.459Z,56.93
2019-02-23T20:47:43.783Z,42.37
2019-02-23T20:50:17.243Z,40.03
2019-02-23T20:52:46.649Z,56.87
2019-02-23T20:55:17.872Z,54.90
2019-02-23T20:57:47.183Z,51.10
2019-02-23T21:00:16.492Z,45.03
2019-02-23T21:02:45.810Z,38.40
2019-02-23T21:05:15.339Z,50.67
2019-02-23T21:07:44.655Z,50.93
2019-02-23T21:10:13.962Z,40.97
2019-02-23T21:12:44.014Z,36.53
2019-02-23T21:15:13.314Z,34.77
2019-02-23T21:17:42.598Z,39.10
2019-02-23T21:20:12.407Z,33.03
2019-02-23T21:22:41.700Z,40.63
2019-02-23T21:25:10.982Z,30.13
2019-02-23T21:27:40.256Z,34.13
2019-02-23T21:30:09.810Z,29.83
2019-02-23T21:32:39.057Z,30.77
2019-02-23T21:35:08.421Z,29.97
2019-02-23T21:37:37.701Z,32.80
2019-02-23T21:40:07.157Z,29.57
2019-02-23T21:42:36.442Z,31.93
2019-02-23T21:45:05.899Z,38.40
2019-02-23T21:47:35.162Z,39.83
2019-02-23T21:50:04.482Z,39.17
2019-02-23T21:52:33.805Z,37.37
2019-02-23T21:55:03.902Z,32.20
2019-02-23T21:57:33.206Z,31.73
2019-02-23T22:00:02.494Z,30.27
2019-02-23T22:02:31.789Z,33.60
2019-02-23T22:05:01.089Z,33.43
2019-02-23T22:07:30.454Z,30.77
2019-02-23T22:09:59.733Z,31.87
2019-02-23T22:12:29.007Z,28.63
2019-02-23T22:14:58.359Z,31.27
2019-02-23T22:17:27.701Z,36.67
2019-02-23T22:19:57.049Z,33.50
2019-02-23T22:22:26.330Z,36.23
2019-02-23T22:24:55.649Z,40.63
2019-02-23T22:27:31.110Z,39.13
2019-02-23T22:29:55.943Z,39.17
2019-02-23T22:32:25.285Z,35.63
2019-02-23T22:34:54.531Z,40.50
2019-02-23T22:37:23.837Z,37.53
2019-02-23T22:39:53.145Z,32.20
2019-02-23T22:42:22.432Z,35.77
2019-02-23T22:44:51.788Z,54.30
2019-02-23T22:47:21.145Z,34.63
2019-02-23T22:49:50.528Z,37.00
2019-02-23T22:52:19.840Z,31.87
2019-02-23T22:54:49.065Z,32.33
2019-02-23T22:57:18.237Z,31.30
2019-02-23T22:59:47.548Z,27.63
2019-02-23T23:02:16.932Z,35.83
2019-02-23T23:04:46.252Z,35.83
2019-02-23T23:07:15.625Z,33.03
2019-02-23T23:09:45.000Z,35.23
2019-02-23T23:12:14.357Z,29.87
2019-02-23T23:14:43.663Z,30.43
2019-02-23T23:17:13.488Z,32.00
2019-02-23T23:19:42.952Z,34.40
2019-02-23T23:22:12.556Z,32.30
2019-02-23T23:24:41.868Z,31.67
2019-02-23T23:27:12.049Z,29.03
2019-02-23T23:29:41.296Z,37.40
2019-02-23T23:32:10.562Z,29.47
2019-02-23T23:34:40.084Z,33.23
2019-02-23T23:37:09.396Z,30.70
2019-02-23T23:39:38.692Z,29.37
2019-02-23T23:42:07.956Z,29.07
2019-02-23T23:44:37.232Z,33.40
2019-02-23T23:47:06.547Z,35.27
2019-02-23T23:49:35.815Z,40.77
2019-02-23T23:52:05.175Z,29.77
2019-02-23T23:54:34.480Z,29.53
2019-02-23T23:57:03.863Z,29.47
2019-02-23T23:59:33.204Z,26.37
